Airfield :
LOGIN :

Register | Disclaimer

   EN    FR    IT 

 










Legend :    VFR   Marginal VFR   IFR   Intensive IFR   Very Intensive IFR
Visi :
Ceiling :
>= 8 km
>= 3000ft
5 to 8 km
1000 to 3000 ft
1500m to 5 km
500 to 1000 ft
800 to 1500m
200 to 500 ft
< 800m
< 200 ft
Symbols :   Thunderstorms  Fog  Heavy snow  Heavy precipitations  Wind > 20 kt
SIGMETs :     Misc.  Thunderstorms  Icing  Turbulence  Mountain Waves  Volcanic Ashes






- Airport Elevation : 17 ft
- IATA code : MPL


LFMT - Montpellier Méditerranée

CURRENT METAR :
  • 161230Z AUTO 14020KT 9999 SCT015 BKN031 OVC038 15/13 Q1012 TEMPO OVC009 BECMG 13020G30KT

EXPIRED METARs :
  • 161200Z AUTO 13019KT 9999 FEW014 BKN033 BKN039 15/13 Q1012 TEMPO OVC009 BECMG 13020G30KT
  • 161130Z AUTO 13019KT 9999 FEW017 SCT034 BKN046 15/12 Q1013 TEMPO OVC009 BECMG 13020G30KT
  • 161100Z AUTO 14018KT 9999 FEW023 OVC043 15/12 Q1013 TEMPO OVC009 BECMG 13020G30KT
  • 161030Z AUTO 14019KT 9999 OVC043 15/12 Q1014 TEMPO OVC009 BECMG 13020G30KT
  • 161000Z AUTO 14019KT 9999 BKN018 BKN030 OVC040 15/12 Q1014 TEMPO OVC009 BECMG 13020G30KT

TAF TAF LFMT
Valid from the 16 at 09:00 until the 17 at 09:00 UTC


160800Z 1609/1709 13015KT 9999 BKN015 BKN025 OVC040
BECMG 1611/1613 13020G30KT
TEMPO 1611/1616 -RA OVC009
BECMG 1621/1624 13030G40KT
ATIS : +33 4 67 13 11 70



MET'MAP, your aeronautical weather chart ! - Copyright ORBIFLY December 2007 - Disclaimer

ORBIFLY MET'MAP TEAM :

Programming & Development : Alexandra Zaïnal
Concept & original design : Baudouin d'Aumeries
Assistance for programming : Marc-Olivier Méhu
Technical & hardware support : Manuel Goepfert

Contact : metmap@orbifly.com




SOURCES & CREDITS :

   NOAA